KMCB/MCB METAR and TAF weather

Enter ICAO airport designator
Station Type Date Time Source
KMCB METAR 2022/06/30 01:53 UTC NOAA

KMCB 300153Z AUTO 13004KT 10SM CLR 24/22 A3011 RMK AO2 SLP188 T02390217


Station Type Date Time Source
KMCB Decoded METAR 2022/06/30 01:53 UTC NOAA

MCCOMB/PIKE COUNTY AIRPORT, MS, United States (KMCB) 31-11N 90-28W 124M
Jun 29, 2022 - 09:53 PM EDT / 2022.06.30 0153 UTC
Wind: from the SE (130 degrees) at 5 MPH (4 KT):0
Visibility: 10 mile(s):0
Sky conditions: clear
Temperature: 75.0 F (23.9 C)
Dew Point: 71.1 F (21.7 C)
Relative Humidity: 87%
Pressure (altimeter): 30.11 in. Hg (1019 hPa)
ob: KMCB 300153Z AUTO 13004KT 10SM CLR 24/22 A3011 RMK AO2 SLP188 T02390217
cycle: 2

Station Type Date Time Source
KMCB TAF 2022/06/29 18:39 UTC NOAA

TAF KMCB 291735Z 2918/3018 10005KT P6SM VCTS SCT025CB BKN060
TEMPO 2920/2922 4SM TSRA BR BKN020CB
FM292300 VRB03KT P6SM SCT025 BKN100
FM301000 00000KT 5SM BR BKN008 BKN015
FM301400 13004KT P6SM SCT008 BKN015
FM301600 14007KT P6SM VCSH SCT025 BKN050

Example: see airport list